createdAt,value
2022-10-05T07:47:31.336Z,49.82
2022-10-05T07:47:31.336Z,49.82
2022-10-05T07:50:02.519Z,52.22
2022-10-05T07:50:02.519Z,52.22
2022-10-05T07:51:17.077Z,50.99
2022-10-05T07:52:20.673Z,49.38
2022-10-05T07:53:24.320Z,49.48
2022-10-05T07:54:27.996Z,49.30
2022-10-05T07:55:31.634Z,49.40
2022-10-05T07:56:35.251Z,49.30
2022-10-05T07:57:38.855Z,49.40
2022-10-05T07:58:42.438Z,49.20
2022-10-05T07:59:46.014Z,49.20
2022-10-05T08:00:49.610Z,49.30
2022-10-05T08:01:53.248Z,49.30
2022-10-05T08:02:57.089Z,49.40
2022-10-05T08:04:00.760Z,49.50
2022-10-05T08:05:04.359Z,49.60
2022-10-05T08:06:08.026Z,49.40
2022-10-05T08:07:11.769Z,49.30
2022-10-05T08:08:16.837Z,49.30
2022-10-05T08:09:18.143Z,46.90
2022-10-05T08:10:21.771Z,46.45
2022-10-05T08:11:25.387Z,47.59
2022-10-05T08:12:29.069Z,47.81
2022-10-05T08:13:32.737Z,48.23
2022-10-05T08:14:36.390Z,48.03
2022-10-05T08:15:40.062Z,48.53
2022-10-05T08:16:43.713Z,48.23
2022-10-05T08:17:47.355Z,48.03
2022-10-05T08:18:51.068Z,48.13
2022-10-05T08:19:54.721Z,48.43
2022-10-05T08:20:58.324Z,48.03
2022-10-05T08:22:01.929Z,48.03
2022-10-05T08:23:05.520Z,48.13
2022-10-05T08:24:09.118Z,48.23
2022-10-05T08:25:12.729Z,48.03
2022-10-05T08:26:16.350Z,48.13
2022-10-05T08:27:19.948Z,48.13
2022-10-05T08:28:23.593Z,48.23
2022-10-05T08:29:27.210Z,48.43
2022-10-05T08:30:30.900Z,48.13
2022-10-05T08:31:34.615Z,48.13
2022-10-05T08:32:38.277Z,48.33
2022-10-05T08:33:41.882Z,48.13
2022-10-05T08:34:45.570Z,48.23
2022-10-05T08:35:49.219Z,48.13
2022-10-05T08:36:53.965Z,48.33
2022-10-05T08:37:57.915Z,48.33
2022-10-05T08:39:01.559Z,48.53
2022-10-05T08:40:05.231Z,48.73
2022-10-05T08:41:08.861Z,48.83
2022-10-05T08:42:12.508Z,48.01
2022-10-05T08:43:16.193Z,48.11
2022-10-05T08:44:19.802Z,49.70
2022-10-05T08:45:23.444Z,49.21
2022-10-05T08:46:27.207Z,49.30
2022-10-05T08:47:30.890Z,48.41
2022-10-05T08:48:34.580Z,48.71
2022-10-05T08:49:38.148Z,48.50
2022-10-05T08:50:41.844Z,48.71
2022-10-05T08:51:45.796Z,48.71
2022-10-05T08:52:49.692Z,50.48
2022-10-05T08:53:53.331Z,49.01
2022-10-05T08:54:56.968Z,50.78
2022-10-05T08:56:00.643Z,48.68
2022-10-05T08:57:04.252Z,48.16
2022-10-05T08:58:07.958Z,48.38
2022-10-05T08:59:11.594Z,48.38
2022-10-05T09:00:15.204Z,48.28
2022-10-05T09:01:18.912Z,48.68
2022-10-05T09:02:22.692Z,48.49
2022-10-05T09:03:27.045Z,48.38
2022-10-05T09:04:30.105Z,48.91
2022-10-05T09:05:33.708Z,49.10
2022-10-05T09:06:37.342Z,49.01
2022-10-05T09:07:40.995Z,49.10
2022-10-05T09:08:44.628Z,49.01
2022-10-05T09:09:48.205Z,49.21
2022-10-05T09:10:51.843Z,49.60
2022-10-05T09:11:55.523Z,49.21
2022-10-05T09:12:59.106Z,49.10
2022-10-05T09:14:02.791Z,49.10
2022-10-05T09:15:24.838Z,49.90
2022-10-05T09:16:09.153Z,50.10
2022-10-05T09:17:12.802Z,50.10
2022-10-05T09:18:16.421Z,50.18
2022-10-05T09:19:20.037Z,49.98
2022-10-05T09:20:23.644Z,49.68
2022-10-05T09:21:27.310Z,49.58
2022-10-05T09:22:30.978Z,50.65
2022-10-05T09:23:34.645Z,49.46
2022-10-05T09:24:38.316Z,49.95
2022-10-05T09:25:41.909Z,49.66
2022-10-05T09:26:45.516Z,49.46
2022-10-05T09:27:49.167Z,50.45
2022-10-05T09:28:52.808Z,49.36
2022-10-05T09:29:56.423Z,49.26
2022-10-05T09:31:00.083Z,49.26
2022-10-05T09:32:03.810Z,49.55
2022-10-05T09:33:07.405Z,49.46
2022-10-05T09:34:11.063Z,49.26
2022-10-05T09:35:14.816Z,49.36
2022-10-05T09:36:18.461Z,49.06
2022-10-05T09:37:22.144Z,49.26
2022-10-05T09:38:25.834Z,49.26
2022-10-05T09:39:29.515Z,49.36
2022-10-05T09:40:33.086Z,49.26
2022-10-05T09:41:36.695Z,49.16
2022-10-05T09:42:40.383Z,49.16
2022-10-05T09:43:43.991Z,49.85
2022-10-05T09:44:47.747Z,49.16
2022-10-05T09:45:51.447Z,50.75
2022-10-05T09:46:55.134Z,49.36
2022-10-05T09:47:58.829Z,49.76
2022-10-05T09:49:02.428Z,49.26
2022-10-05T09:50:06.030Z,49.48
2022-10-05T09:51:09.665Z,50.18
2022-10-05T09:52:18.666Z,49.46
2022-10-05T09:53:17.628Z,49.06
2022-10-05T09:54:21.257Z,49.04
2022-10-05T09:55:24.877Z,49.13
2022-10-05T09:57:32.149Z,48.74
2022-10-05T09:58:35.781Z,48.83
2022-10-05T09:59:39.390Z,48.74
2022-10-05T10:00:48.183Z,49.73
2022-10-05T10:01:47.150Z,49.04
2022-10-05T10:02:51.252Z,49.04
2022-10-05T10:03:55.006Z,48.74
2022-10-05T10:04:58.600Z,48.74
2022-10-05T10:06:02.236Z,48.83
2022-10-05T10:07:05.838Z,48.74
2022-10-05T10:08:09.471Z,48.96
2022-10-05T10:09:13.149Z,49.06
2022-10-05T10:10:16.775Z,48.86
2022-10-05T10:11:20.469Z,49.36
2022-10-05T10:12:24.154Z,49.16
2022-10-05T10:13:27.722Z,49.06
2022-10-05T10:14:31.393Z,48.96
2022-10-05T10:15:35.124Z,49.26
2022-10-05T10:16:38.869Z,49.55
2022-10-05T10:17:42.580Z,48.96
2022-10-05T10:18:46.240Z,48.94
2022-10-05T10:19:49.923Z,48.94
2022-10-05T10:20:53.526Z,48.83
2022-10-05T10:21:57.122Z,49.26
2022-10-05T10:23:00.695Z,49.46
2022-10-05T10:24:04.259Z,49.16
2022-10-05T10:25:07.902Z,48.86
2022-10-05T10:26:11.595Z,49.06
2022-10-05T10:27:15.230Z,49.04
2022-10-05T10:28:18.894Z,48.83
2022-10-05T10:29:22.676Z,49.23
2022-10-05T10:30:27.699Z,48.86
2022-10-05T10:31:29.495Z,49.04
2022-10-05T10:32:33.135Z,48.74
2022-10-05T10:33:36.783Z,49.04
2022-10-05T10:34:40.455Z,49.53
2022-10-05T10:35:44.092Z,48.64
2022-10-05T10:36:47.950Z,48.54
2022-10-05T10:37:51.701Z,48.83
2022-10-05T10:38:55.356Z,48.64
2022-10-05T10:39:59.027Z,48.44
2022-10-05T10:41:02.685Z,48.44
2022-10-05T10:42:06.320Z,48.44
2022-10-05T10:43:09.931Z,48.54
2022-10-05T10:44:13.530Z,48.74
2022-10-05T10:45:17.169Z,48.74
2022-10-05T10:46:20.929Z,48.64
2022-10-05T10:47:24.575Z,48.74
2022-10-05T10:48:28.229Z,48.83
2022-10-05T10:49:31.873Z,48.74
2022-10-05T10:50:35.493Z,48.74
2022-10-05T10:51:39.104Z,48.83
2022-10-05T10:52:42.663Z,48.94
2022-10-05T10:53:46.357Z,49.06
2022-10-05T10:54:50.029Z,49.04
2022-10-05T10:55:53.621Z,49.04
2022-10-05T10:56:57.207Z,48.94
2022-10-05T10:58:00.829Z,48.94
2022-10-05T10:59:04.496Z,49.04
2022-10-05T11:00:08.174Z,49.13
2022-10-05T11:01:11.816Z,49.33
2022-10-05T11:02:15.562Z,48.94
2022-10-05T11:03:19.319Z,48.83
2022-10-05T11:04:22.961Z,48.83
2022-10-05T11:05:26.573Z,49.33
2022-10-05T11:06:30.182Z,48.94
2022-10-05T11:07:33.826Z,48.83
2022-10-05T11:08:37.500Z,48.83
2022-10-05T11:09:41.159Z,48.94
2022-10-05T11:10:44.787Z,48.94
2022-10-05T11:11:48.692Z,48.94
2022-10-05T11:12:52.447Z,48.74
2022-10-05T11:13:56.102Z,48.94
2022-10-05T11:14:59.683Z,48.64
2022-10-05T11:16:03.526Z,48.74
2022-10-05T11:17:07.309Z,49.10
2022-10-05T11:18:10.921Z,50.97
2022-10-05T11:19:14.514Z,51.50
2022-10-05T11:20:18.119Z,51.50
2022-10-05T11:21:21.720Z,51.92
2022-10-05T11:22:25.378Z,51.72
2022-10-05T11:23:29.011Z,52.25
2022-10-05T11:24:32.646Z,52.04
2022-10-05T11:25:36.263Z,52.25
2022-10-05T11:26:39.878Z,52.44
2022-10-05T11:27:43.464Z,51.92
2022-10-05T11:28:47.052Z,51.70
2022-10-05T11:29:50.678Z,51.07
2022-10-05T11:30:54.482Z,50.77
2022-10-05T11:33:10.643Z,50.97
2022-10-05T11:34:14.256Z,50.95
2022-10-05T11:35:17.861Z,50.47
2022-10-05T11:36:21.463Z,50.47
2022-10-05T11:37:25.084Z,50.47
2022-10-05T11:38:28.704Z,50.47
2022-10-05T11:39:32.300Z,51.05
2022-10-05T11:40:35.891Z,51.15
2022-10-05T11:41:39.501Z,50.82
2022-10-05T11:42:43.098Z,50.30
2022-10-05T11:43:46.680Z,50.10
2022-10-05T11:44:50.235Z,50.10
2022-10-05T11:45:53.854Z,50.20
2022-10-05T11:46:57.485Z,50.20
2022-10-05T11:48:01.158Z,50.20
2022-10-05T11:49:04.850Z,50.23
2022-10-05T11:50:08.436Z,50.32
2022-10-05T11:51:12.039Z,50.43
2022-10-05T11:52:15.639Z,50.43
2022-10-05T11:53:19.259Z,50.62
2022-10-05T11:54:22.894Z,50.70
2022-10-05T11:55:26.517Z,50.20
2022-10-05T11:57:33.815Z,50.60
2022-10-05T11:58:37.420Z,50.60
2022-10-05T11:59:41.021Z,50.80
2022-10-05T12:00:44.589Z,50.78
2022-10-05T12:01:48.199Z,50.78
2022-10-05T12:02:51.935Z,50.78
2022-10-05T12:03:55.699Z,50.78
2022-10-05T12:04:59.425Z,50.65
2022-10-05T12:06:03.060Z,50.55
2022-10-05T12:07:06.646Z,50.65
2022-10-05T12:08:10.205Z,50.55
2022-10-05T12:09:13.823Z,50.73
2022-10-05T12:10:17.642Z,50.43
2022-10-05T12:11:21.355Z,50.20
2022-10-05T12:12:24.995Z,50.50
2022-10-05T12:13:28.606Z,50.40
2022-10-05T12:14:32.167Z,50.31
2022-10-05T12:15:35.830Z,50.80
2022-10-05T12:16:39.507Z,50.31
2022-10-05T12:17:43.178Z,50.40
2022-10-05T12:18:46.741Z,50.20
2022-10-05T12:19:50.401Z,50.20
2022-10-05T12:20:54.047Z,49.88
2022-10-05T12:21:57.678Z,49.78
2022-10-05T12:23:01.793Z,49.49
2022-10-05T12:24:05.630Z,49.36
2022-10-05T12:25:09.231Z,49.56
2022-10-05T12:26:12.855Z,49.16
2022-10-05T12:27:16.448Z,49.36
2022-10-05T12:28:20.141Z,49.16
2022-10-05T12:29:23.803Z,48.96
2022-10-05T12:30:27.459Z,48.86
2022-10-05T12:31:31.211Z,49.07
2022-10-05T12:32:34.870Z,50.26
2022-10-05T12:33:38.547Z,50.56
2022-10-05T12:34:42.144Z,49.07
2022-10-05T12:35:49.379Z,48.96
2022-10-05T12:37:05.979Z,48.94
2022-10-05T12:37:54.451Z,48.94
2022-10-05T12:38:58.112Z,48.94
2022-10-05T12:40:01.889Z,48.94
2022-10-05T12:41:05.579Z,49.14
2022-10-05T12:42:09.271Z,48.84
2022-10-05T12:43:12.899Z,48.65
2022-10-05T12:44:16.461Z,48.74
2022-10-05T12:45:20.057Z,48.74
2022-10-05T12:46:23.686Z,48.65
2022-10-05T12:47:27.315Z,48.74
2022-10-05T12:48:30.938Z,48.84
2022-10-05T12:49:34.590Z,48.65
2022-10-05T12:50:38.178Z,48.65
2022-10-05T12:51:41.771Z,48.54
2022-10-05T12:52:45.451Z,48.54
2022-10-05T12:53:49.048Z,48.54
2022-10-05T12:54:52.683Z,48.42
2022-10-05T12:55:56.343Z,48.42
2022-10-05T12:56:59.901Z,48.32
2022-10-05T12:58:03.576Z,48.22
2022-10-05T12:59:07.235Z,48.13
2022-10-05T13:00:10.819Z,48.22
2022-10-05T13:01:14.510Z,48.13
2022-10-05T13:02:18.206Z,48.22
2022-10-05T13:03:21.879Z,48.22
2022-10-05T13:04:25.530Z,47.92
2022-10-05T13:05:29.188Z,47.92
2022-10-05T13:06:32.823Z,47.92
2022-10-05T13:07:36.451Z,47.92
2022-10-05T13:08:40.058Z,48.02
2022-10-05T13:09:43.684Z,48.22
2022-10-05T13:10:47.244Z,47.83
2022-10-05T13:11:50.843Z,47.83
2022-10-05T13:12:54.483Z,47.71
2022-10-05T13:13:58.141Z,47.61
2022-10-05T13:15:01.736Z,48.00
2022-10-05T13:16:05.486Z,47.71
2022-10-05T13:17:09.177Z,47.90
2022-10-05T13:18:12.768Z,47.80
2022-10-05T13:19:16.341Z,47.71
2022-10-05T13:20:19.969Z,47.61
2022-10-05T13:21:23.768Z,47.71
2022-10-05T13:22:27.404Z,47.61
2022-10-05T13:23:31.037Z,47.50
2022-10-05T13:24:34.643Z,47.80
2022-10-05T13:25:38.276Z,47.41
2022-10-05T13:26:41.971Z,47.49
2022-10-05T13:27:45.523Z,47.28
2022-10-05T13:28:49.193Z,47.50
2022-10-05T13:29:54.430Z,47.38
2022-10-05T13:30:55.684Z,47.19
2022-10-05T13:31:59.395Z,47.38
2022-10-05T13:33:03.022Z,47.19
2022-10-05T13:34:06.635Z,47.28
2022-10-05T13:35:11.631Z,47.28
2022-10-05T13:36:13.070Z,47.19
2022-10-05T13:37:16.875Z,47.28
2022-10-05T13:38:20.502Z,47.19
2022-10-05T13:39:24.094Z,47.71
2022-10-05T13:40:27.734Z,46.91
2022-10-05T13:41:31.362Z,47.31
2022-10-05T13:42:34.995Z,47.41
2022-10-05T13:43:38.669Z,46.91
2022-10-05T13:44:42.357Z,46.89
2022-10-05T13:45:46.067Z,46.98
2022-10-05T13:46:49.764Z,46.98
2022-10-05T13:47:53.353Z,46.89
2022-10-05T13:48:57.017Z,47.49
2022-10-05T13:50:00.769Z,47.09
2022-10-05T13:51:04.459Z,47.28
2022-10-05T13:52:08.127Z,46.89
2022-10-05T13:53:11.785Z,46.98
2022-10-05T13:54:15.470Z,46.98
2022-10-05T13:55:19.069Z,47.49
2022-10-05T13:56:22.677Z,47.09
2022-10-05T13:57:26.346Z,46.89
2022-10-05T13:58:29.985Z,46.98
2022-10-05T13:59:33.584Z,46.79
2022-10-05T14:00:37.253Z,46.98
2022-10-05T14:01:40.899Z,47.49
2022-10-05T14:02:44.524Z,48.77
2022-10-05T14:03:48.158Z,47.96
2022-10-05T14:04:51.769Z,47.56
2022-10-05T14:05:55.976Z,47.06
2022-10-05T14:06:59.753Z,47.16
2022-10-05T14:08:03.382Z,47.16
2022-10-05T14:09:07.054Z,46.97
2022-10-05T14:10:10.715Z,47.09
2022-10-05T14:11:14.845Z,46.97
2022-10-05T14:12:18.903Z,47.26
2022-10-05T14:13:22.501Z,47.56
2022-10-05T14:14:26.068Z,47.86
2022-10-05T14:15:29.664Z,48.94
2022-10-05T14:16:33.395Z,50.13
2022-10-05T14:17:37.139Z,47.66
2022-10-05T14:18:40.733Z,47.16
2022-10-05T14:19:44.459Z,47.36
2022-10-05T14:20:48.114Z,47.56
2022-10-05T14:21:51.782Z,47.36
2022-10-05T14:22:55.465Z,47.26
2022-10-05T14:23:59.161Z,47.36
2022-10-05T14:25:02.830Z,48.75
2022-10-05T14:26:06.471Z,48.05
2022-10-05T14:27:10.148Z,48.15
2022-10-05T14:28:13.785Z,47.46
2022-10-05T14:29:17.466Z,48.05
2022-10-05T14:30:21.068Z,48.55
2022-10-05T14:31:24.746Z,47.56
2022-10-05T14:32:28.392Z,47.86
2022-10-05T14:33:32.009Z,46.97
2022-10-05T14:34:35.642Z,48.25
2022-10-05T14:35:39.322Z,47.16
2022-10-05T14:36:42.946Z,48.94
2022-10-05T14:37:46.580Z,46.86
2022-10-05T14:38:50.263Z,47.56
2022-10-05T14:39:53.855Z,46.77
2022-10-05T14:40:57.444Z,46.77
2022-10-05T14:42:01.081Z,46.74
2022-10-05T14:43:04.713Z,46.94
2022-10-05T14:44:08.337Z,46.74
2022-10-05T14:45:11.975Z,48.03
2022-10-05T14:46:16.049Z,47.46
2022-10-05T14:47:19.922Z,47.44
2022-10-05T14:48:23.524Z,47.34
2022-10-05T14:49:27.339Z,46.84
2022-10-05T14:50:30.938Z,46.84
2022-10-05T14:51:34.529Z,47.24
2022-10-05T14:52:38.153Z,47.14
2022-10-05T14:53:41.832Z,46.94
2022-10-05T14:54:45.449Z,48.03
2022-10-05T14:55:49.093Z,48.13
2022-10-05T14:56:52.786Z,48.13
2022-10-05T14:57:56.441Z,47.53
2022-10-05T14:59:00.125Z,47.34
2022-10-05T15:00:03.773Z,47.53
2022-10-05T15:01:07.467Z,47.24
2022-10-05T15:02:11.196Z,47.24
2022-10-05T15:03:14.886Z,47.53
2022-10-05T15:04:18.483Z,47.34
2022-10-05T15:05:22.061Z,47.44
2022-10-05T15:06:25.694Z,48.03
2022-10-05T15:07:29.361Z,47.53
2022-10-05T15:08:32.963Z,47.34
2022-10-05T15:09:36.564Z,47.14
2022-10-05T15:10:40.213Z,47.24
2022-10-05T15:11:43.845Z,47.83
2022-10-05T15:12:47.535Z,48.03
2022-10-05T15:13:51.180Z,47.66
2022-10-05T15:14:54.805Z,47.46
2022-10-05T15:15:58.419Z,48.15
2022-10-05T15:17:02.111Z,47.46
2022-10-05T15:18:05.747Z,47.96
2022-10-05T15:19:09.330Z,47.56
2022-10-05T15:20:12.960Z,47.96
2022-10-05T15:21:16.648Z,47.56
2022-10-05T15:22:20.230Z,47.56
2022-10-05T15:23:23.903Z,47.75
2022-10-05T15:24:27.566Z,47.86
2022-10-05T15:25:31.167Z,47.75
2022-10-05T15:26:34.752Z,48.55
2022-10-05T15:27:38.350Z,47.75
2022-10-05T15:28:42.107Z,47.75
2022-10-05T15:29:49.866Z,47.56
2022-10-05T15:30:50.734Z,47.56
2022-10-05T15:31:54.352Z,47.78
2022-10-05T15:32:58.026Z,47.88
2022-10-05T15:34:01.694Z,48.08
2022-10-05T15:35:05.300Z,48.30
2022-10-05T15:36:08.899Z,48.30
2022-10-05T15:37:12.474Z,48.30
2022-10-05T15:38:16.104Z,48.30
2022-10-05T15:39:19.794Z,48.52
2022-10-05T15:40:23.386Z,48.42
2022-10-05T15:41:26.973Z,48.32
2022-10-05T15:42:30.581Z,48.42
2022-10-05T15:43:34.210Z,48.32
2022-10-05T15:44:37.905Z,48.32
2022-10-05T15:45:41.602Z,48.42
2022-10-05T15:46:45.238Z,48.54
2022-10-05T15:47:48.855Z,48.54
2022-10-05T15:48:52.499Z,48.54
2022-10-05T15:49:56.162Z,48.54
2022-10-05T15:50:59.786Z,48.65
2022-10-05T15:52:03.400Z,48.65
2022-10-05T15:53:07.091Z,48.74
2022-10-05T15:54:10.722Z,48.65
2022-10-05T15:55:14.278Z,48.65
2022-10-05T15:56:17.945Z,48.84
2022-10-05T15:57:21.621Z,48.77
2022-10-05T15:58:25.667Z,48.96
2022-10-05T15:59:29.401Z,48.96
2022-10-05T16:00:33.061Z,48.96
2022-10-05T16:01:36.819Z,48.86
2022-10-05T16:02:40.564Z,49.07
2022-10-05T16:03:44.269Z,49.07
2022-10-05T16:04:47.875Z,48.86
2022-10-05T16:05:51.563Z,49.19
2022-10-05T16:06:55.241Z,49.08
2022-10-05T16:07:58.839Z,49.08
2022-10-05T16:09:02.523Z,49.19
2022-10-05T16:10:06.193Z,49.19
2022-10-05T16:11:09.913Z,49.08
2022-10-05T16:12:13.647Z,49.31
2022-10-05T16:13:17.246Z,49.31
2022-10-05T16:14:20.926Z,49.31
2022-10-05T16:15:24.564Z,49.31
2022-10-05T16:16:28.302Z,49.41
2022-10-05T16:17:32.068Z,49.31
2022-10-05T16:18:35.664Z,49.41
2022-10-05T16:19:39.264Z,49.53
2022-10-05T16:20:42.844Z,49.53
2022-10-05T16:21:46.400Z,49.63
2022-10-05T16:22:49.999Z,49.63
2022-10-05T16:23:53.625Z,49.63
2022-10-05T16:24:57.270Z,49.63
2022-10-05T16:26:00.910Z,49.85
2022-10-05T16:27:04.471Z,49.93
2022-10-05T16:28:08.208Z,49.85
2022-10-05T16:29:11.885Z,49.95
2022-10-05T16:30:15.491Z,49.95
2022-10-05T16:31:19.304Z,50.05
2022-10-05T16:32:23.042Z,50.15
2022-10-05T16:33:26.673Z,50.05
2022-10-05T16:34:30.270Z,50.15
2022-10-05T16:35:33.905Z,50.15
2022-10-05T16:36:37.567Z,50.27
2022-10-05T16:37:41.201Z,50.38
2022-10-05T16:38:44.840Z,50.25
2022-10-05T16:39:48.489Z,50.25
2022-10-05T16:40:52.102Z,50.27
2022-10-05T16:41:55.722Z,50.38
2022-10-05T16:42:59.345Z,50.38
2022-10-05T16:44:02.936Z,50.38
2022-10-05T16:45:06.531Z,50.38
2022-10-05T16:46:10.522Z,50.38
2022-10-05T16:47:14.207Z,50.38
2022-10-05T16:48:17.862Z,50.38
2022-10-05T16:49:21.459Z,50.48
2022-10-05T16:50:25.090Z,50.57
2022-10-05T16:51:28.694Z,50.78
2022-10-05T16:52:32.294Z,50.80
2022-10-05T16:53:35.919Z,50.90
2022-10-05T16:54:42.177Z,50.90
2022-10-05T16:55:42.847Z,50.80
2022-10-05T16:56:46.459Z,50.90
2022-10-05T16:57:50.112Z,51.00
2022-10-05T16:58:53.773Z,51.00
2022-10-05T16:59:57.414Z,50.90
2022-10-05T17:01:01.084Z,50.90
2022-10-05T17:02:04.928Z,51.00
2022-10-05T17:03:08.588Z,51.10
2022-10-05T17:04:12.202Z,51.00
2022-10-05T17:05:15.849Z,50.90
2022-10-05T17:06:19.474Z,51.00
2022-10-05T17:07:23.106Z,51.00
2022-10-05T17:08:27.131Z,51.00
2022-10-05T17:09:30.991Z,51.10
2022-10-05T17:10:34.617Z,51.29
2022-10-05T17:11:38.277Z,51.32
2022-10-05T17:12:41.989Z,51.20
2022-10-05T17:13:45.663Z,51.29
2022-10-05T17:14:49.301Z,51.20
2022-10-05T17:15:52.950Z,51.32
2022-10-05T17:16:56.679Z,51.42
2022-10-05T17:18:00.327Z,51.42
2022-10-05T17:19:03.915Z,51.42
2022-10-05T17:20:07.538Z,51.42
2022-10-05T17:21:11.142Z,51.42
2022-10-05T17:22:14.825Z,51.52
2022-10-05T17:23:18.501Z,51.52
2022-10-05T17:24:22.138Z,51.42
2022-10-05T17:25:25.808Z,51.52
2022-10-05T17:26:29.436Z,51.72
2022-10-05T17:27:33.094Z,51.95
2022-10-05T17:28:36.843Z,51.82
2022-10-05T17:29:40.555Z,51.82
2022-10-05T17:30:44.277Z,51.82
2022-10-05T17:31:47.944Z,51.82
2022-10-05T17:32:51.573Z,51.82
2022-10-05T17:33:55.310Z,51.95
2022-10-05T17:34:58.896Z,51.82
2022-10-05T17:36:02.562Z,51.72
2022-10-05T17:37:06.163Z,51.82
2022-10-05T17:38:09.723Z,51.84
2022-10-05T17:39:13.364Z,51.95
2022-10-05T17:40:16.999Z,52.04
2022-10-05T17:41:20.555Z,51.95
2022-10-05T17:42:24.240Z,52.04
2022-10-05T17:43:27.913Z,52.04
2022-10-05T17:44:31.486Z,52.25
2022-10-05T17:45:35.177Z,52.34
2022-10-05T17:46:38.935Z,52.14
2022-10-05T17:47:46.774Z,52.04
2022-10-05T17:48:46.122Z,52.04
2022-10-05T17:49:49.762Z,51.95
2022-10-05T17:50:53.425Z,51.84
2022-10-05T17:51:57.217Z,51.95
2022-10-05T17:53:02.398Z,51.95
2022-10-05T17:54:03.847Z,52.04
2022-10-05T17:55:07.491Z,52.14
2022-10-05T17:56:11.125Z,52.04
2022-10-05T17:57:14.716Z,52.14
2022-10-05T17:58:18.318Z,52.27
2022-10-05T17:59:21.932Z,52.37
2022-10-05T18:00:25.522Z,52.37
2022-10-05T18:01:29.173Z,52.37
2022-10-05T18:02:36.711Z,52.47
2022-10-05T18:03:35.685Z,52.47
2022-10-05T18:04:39.274Z,52.37
2022-10-05T18:05:42.891Z,52.37
2022-10-05T18:06:46.509Z,52.37
2022-10-05T18:07:50.215Z,52.47
2022-10-05T18:08:53.810Z,52.57
2022-10-05T18:09:57.431Z,52.47
2022-10-05T18:11:01.126Z,52.47
2022-10-05T18:12:04.791Z,52.37
2022-10-05T18:13:08.350Z,52.39
2022-10-05T18:14:11.942Z,52.27
2022-10-05T18:15:15.537Z,52.07
2022-10-05T18:16:19.177Z,52.17
2022-10-05T18:17:27.768Z,52.07
2022-10-05T18:18:27.294Z,52.19
2022-10-05T18:19:31.189Z,52.19
2022-10-05T18:20:34.818Z,51.97
2022-10-05T18:21:38.445Z,52.09
2022-10-05T18:22:42.052Z,52.09
2022-10-05T18:23:45.694Z,52.09
2022-10-05T18:24:49.313Z,52.09
2022-10-05T18:25:52.909Z,52.09
2022-10-05T18:26:56.576Z,52.00
2022-10-05T18:28:00.299Z,52.00
2022-10-05T18:29:03.888Z,52.09
2022-10-05T18:30:07.479Z,52.00
2022-10-05T18:31:11.126Z,51.89
2022-10-05T18:32:14.764Z,51.89
2022-10-05T18:33:18.367Z,51.89
2022-10-05T18:34:21.981Z,51.89
2022-10-05T18:35:25.555Z,52.09
2022-10-05T18:36:29.970Z,51.89
2022-10-05T18:37:33.223Z,52.09
2022-10-05T18:38:36.832Z,52.00
2022-10-05T18:39:40.696Z,52.00
2022-10-05T18:40:44.325Z,51.89
2022-10-05T18:41:47.918Z,52.09
2022-10-05T18:42:51.494Z,52.00
2022-10-05T18:43:55.107Z,52.12
2022-10-05T18:44:58.743Z,52.09
2022-10-05T18:46:02.399Z,52.12
2022-10-05T18:47:06.077Z,52.12
2022-10-05T18:48:09.751Z,52.22
2022-10-05T18:49:13.379Z,52.22
2022-10-05T18:50:16.973Z,52.12
2022-10-05T18:51:20.599Z,52.32
2022-10-05T18:52:24.218Z,52.12
2022-10-05T18:53:27.821Z,51.89
2022-10-05T18:54:31.423Z,52.02
2022-10-05T18:55:35.099Z,52.12
2022-10-05T18:56:38.706Z,52.02
2022-10-05T18:57:42.300Z,52.02
2022-10-05T18:58:45.948Z,51.89
2022-10-05T18:59:49.538Z,51.89
2022-10-05T19:00:53.172Z,51.92
2022-10-05T19:01:56.922Z,51.89
2022-10-05T19:03:00.834Z,51.92
2022-10-05T19:04:04.476Z,52.12
2022-10-05T19:05:23.590Z,52.02
2022-10-05T19:06:13.152Z,52.02
2022-10-05T19:07:14.500Z,51.92
2022-10-05T19:08:18.165Z,52.02
2022-10-05T19:09:21.811Z,52.12
2022-10-05T19:10:25.405Z,52.22
2022-10-05T19:11:29.042Z,52.22
2022-10-05T19:12:32.676Z,52.44
2022-10-05T19:13:36.268Z,52.32
2022-10-05T19:14:39.894Z,52.44
2022-10-05T19:15:43.542Z,52.32
2022-10-05T19:16:47.230Z,52.12
2022-10-05T19:17:50.904Z,52.12
2022-10-05T19:18:54.512Z,52.02
2022-10-05T19:19:58.122Z,52.12
2022-10-05T19:21:01.718Z,52.02
2022-10-05T19:22:05.284Z,52.12
2022-10-05T19:23:08.875Z,52.02
2022-10-05T19:24:12.470Z,51.92
2022-10-05T19:25:16.074Z,52.02
2022-10-05T19:26:19.642Z,52.02
2022-10-05T19:27:23.246Z,52.12
2022-10-05T19:28:27.179Z,52.12
2022-10-05T19:29:30.936Z,52.12
2022-10-05T19:30:34.578Z,52.12
2022-10-05T19:31:38.220Z,52.12
2022-10-05T19:32:41.832Z,52.02
2022-10-05T19:33:45.414Z,52.22
2022-10-05T19:34:49.004Z,52.44
2022-10-05T19:35:52.611Z,52.22
2022-10-05T19:36:56.224Z,52.22
2022-10-05T19:37:59.868Z,52.12
2022-10-05T19:39:03.478Z,52.12
2022-10-05T19:40:09.549Z,52.22
2022-10-05T19:41:11.019Z,52.44
2022-10-05T19:42:14.611Z,52.44
2022-10-05T19:43:18.338Z,52.34
2022-10-05T19:44:21.920Z,52.32
2022-10-05T19:45:25.514Z,52.34
2022-10-05T19:46:29.131Z,52.44
2022-10-05T19:47:35.366Z,52.55
2022-10-05T19:48:36.210Z,52.55
2022-10-05T19:49:39.791Z,52.64
2022-10-05T19:50:43.427Z,52.55
2022-10-05T19:51:47.041Z,52.44
2022-10-05T19:52:50.669Z,52.34
2022-10-05T19:53:54.270Z,52.44
2022-10-05T19:54:57.903Z,52.44
2022-10-05T19:56:01.504Z,52.55
2022-10-05T19:57:05.177Z,52.55
2022-10-05T19:58:08.809Z,52.55
2022-10-05T19:59:12.448Z,52.64
2022-10-05T20:00:16.082Z,52.74
2022-10-05T20:01:19.762Z,52.64
2022-10-05T20:02:23.453Z,52.74
2022-10-05T20:03:27.042Z,52.55
2022-10-05T20:04:30.666Z,52.55
2022-10-05T20:05:34.255Z,52.55
2022-10-05T20:06:37.892Z,52.64
2022-10-05T20:07:41.546Z,52.64
2022-10-05T20:08:45.180Z,52.94
2022-10-05T20:09:48.846Z,52.84
2022-10-05T20:10:52.450Z,52.55
2022-10-05T20:11:56.079Z,52.44
2022-10-05T20:12:59.762Z,52.55
2022-10-05T20:14:03.359Z,52.55
2022-10-05T20:15:06.987Z,52.64
2022-10-05T20:16:10.875Z,52.55
2022-10-05T20:17:14.565Z,52.64
2022-10-05T20:18:18.234Z,52.64
2022-10-05T20:19:21.867Z,52.84
2022-10-05T20:20:25.458Z,52.84
2022-10-05T20:21:29.095Z,52.74
2022-10-05T20:22:32.717Z,52.84
2022-10-05T20:23:36.366Z,52.74
2022-10-05T20:24:39.985Z,52.74
2022-10-05T20:25:43.587Z,52.74
2022-10-05T20:26:47.231Z,52.74
2022-10-05T20:27:50.854Z,52.84
2022-10-05T20:28:54.435Z,53.07
2022-10-05T20:29:58.041Z,53.07
2022-10-05T20:31:01.767Z,52.84
2022-10-05T20:32:05.465Z,52.84
2022-10-05T20:33:09.109Z,52.74
2022-10-05T20:34:12.718Z,52.74
2022-10-05T20:35:16.349Z,52.64
2022-10-05T20:36:19.945Z,52.84
2022-10-05T20:37:23.560Z,52.94
2022-10-05T20:38:27.640Z,53.17
2022-10-05T20:39:31.492Z,53.04
2022-10-05T20:40:35.103Z,53.07
2022-10-05T20:41:38.695Z,53.27
2022-10-05T20:42:42.349Z,53.37
2022-10-05T20:43:45.940Z,53.17
2022-10-05T20:44:54.282Z,53.04
2022-10-05T20:45:52.696Z,53.04
2022-10-05T20:46:56.420Z,52.94
2022-10-05T20:48:00.088Z,53.04
2022-10-05T20:49:03.724Z,53.04
2022-10-05T20:50:07.333Z,53.04
2022-10-05T20:51:10.932Z,53.27
2022-10-05T20:52:14.566Z,53.27
2022-10-05T20:53:18.161Z,53.17
2022-10-05T20:54:21.762Z,53.27
2022-10-05T20:55:25.365Z,53.27
2022-10-05T20:56:28.957Z,53.14
2022-10-05T20:57:32.585Z,53.04
2022-10-05T20:58:36.176Z,53.27
2022-10-05T20:59:39.907Z,53.24
2022-10-05T21:00:43.541Z,53.14
2022-10-05T21:01:47.192Z,53.37
2022-10-05T21:02:50.888Z,53.14
2022-10-05T21:03:54.531Z,53.24
2022-10-05T21:04:58.178Z,53.14
2022-10-05T21:06:01.838Z,53.14
2022-10-05T21:07:05.450Z,53.04
2022-10-05T21:08:09.074Z,53.24
2022-10-05T21:09:12.708Z,53.57
2022-10-05T21:10:16.338Z,53.57
2022-10-05T21:11:19.980Z,53.67
2022-10-05T21:12:23.614Z,53.47
2022-10-05T21:13:27.246Z,53.57
2022-10-05T21:14:30.853Z,53.47
2022-10-05T21:15:34.516Z,53.67
2022-10-05T21:16:38.402Z,53.87
2022-10-05T21:17:42.100Z,53.57
2022-10-05T21:18:45.745Z,53.47
2022-10-05T21:19:49.343Z,53.57
2022-10-05T21:20:52.970Z,53.44
2022-10-05T21:21:56.634Z,53.34
2022-10-05T21:23:00.264Z,53.54
2022-10-05T21:24:03.856Z,53.57
2022-10-05T21:25:07.480Z,53.67
2022-10-05T21:26:11.113Z,53.54
2022-10-05T21:27:14.760Z,53.87
2022-10-05T21:28:18.401Z,53.77
2022-10-05T21:29:22.045Z,53.77